This is the latest recevied weather packets stored in our database for station/object E22ZMG-4. If no packets are shown the sender has not sent any weather packets the latest 1 day(s).
| Time | Temp. | Humidity | Pressure | Rain* | Wind** | Luminosity | Snow |
|---|---|---|---|---|---|---|---|
| 1778049039 | 26.67° C | 41% | 974 hPa | - | 0 m/s | 0 W/m² | - |
| 1778048415 | 26.11° C | 39% | 974 hPa | - | 0 m/s | 0 W/m² | - |
| 1778047791 | 26.67° C | 39% | 974 hPa | - | 0 m/s | 0 W/m² | - |
| 1778047443 | 26.67° C | 39% | 974 hPa | - | 0 m/s | 0 W/m² | - |
| 1778046819 | 26.11° C | 39% | 975 hPa | - | 0 m/s | 0 W/m² | - |
| 1778046195 | 26.67° C | 39% | 975 hPa | - | 0 m/s | 0 W/m² | - |
| 1778045570 | 26.67° C | 39% | 975 hPa | - | 0 m/s | 0 W/m² | - |
| 1778044946 | 26.67° C | 42% | 975 hPa | - | 0 m/s | 0 W/m² | - |
| 1778044322 | 26.11° C | 39% | 975 hPa | - | 0 m/s | 0 W/m² | - |
| 1778043697 | 26.67° C | 39% | 975 hPa | - | 0 m/s | 0 W/m² | - |
| 1778043073 | 27.22° C | 42% | 976 hPa | - | 0 m/s | 0 W/m² | - |
| 1778042449 | 26.67° C | 40% | 976 hPa | - | 0 m/s | 0 W/m² | - |
| 1778041824 | 27.22° C | 45% | 976 hPa | - | 0 m/s | 0 W/m² | - |
| 1778041200 | 26.67° C | 39% | 976 hPa | - | 0 m/s | 0 W/m² | - |
| 1778040575 | 27.22° C | 40% | 976 hPa | - | 0 m/s | 0 W/m² | - |
| 1778039950 | 27.78° C | 44% | 976 hPa | - | 0 m/s | 0 W/m² | - |
| 1778039326 | 27.22° C | 38% | 976 hPa | - | 0 m/s | 0 W/m² | - |
| 1778038701 | 27.78° C | 39% | 977 hPa | - | 0 m/s | 0 W/m² | - |
| 1778038077 | 28.33° C | 41% | 977 hPa | - | 0 m/s | 0 W/m² | - |
| 1778035484 | 31.11° C | 51% | 977 hPa | - | 0 m/s | 0 W/m² | - |
| 1778034860 | 30.56° C | 51% | 977 hPa | - | 0 m/s | 0 W/m² | - |
| 1778034235 | 30° C | 50% | 977 hPa | - | 0 m/s | 0 W/m² | - |
| 1778033611 | 28.33° C | 49% | 977 hPa | - | 0 m/s | 0 W/m² | - |
| 1778032985 | 28.33° C | 47% | 977 hPa | - | 0 m/s | 0 W/m² | - |
| 1778032373 | 28.33° C | 51% | 977 hPa | - | 0 m/s | 0 W/m² | - |
* Rain since midnight (hover to see other rain measurements)
** Current wind speed in m/s (hover to see current wind gust speed)